createdAt,value
2018-07-09T00:02:33.275Z,1017.25
2018-07-09T00:07:29.105Z,1017.29
2018-07-09T00:12:25.015Z,1017.35
2018-07-09T00:17:20.817Z,1017.30
2018-07-09T00:22:16.651Z,1017.40
2018-07-09T00:27:12.083Z,1017.23
2018-07-09T00:32:08.213Z,1017.28
2018-07-09T00:37:04.045Z,1017.36
2018-07-09T00:42:00.367Z,1017.36
2018-07-09T00:46:56.315Z,1017.44
2018-07-09T00:51:52.103Z,1017.27
2018-07-09T00:56:47.941Z,1017.20
2018-07-09T01:01:44.723Z,1017.14
2018-07-09T01:06:39.952Z,1017.09
2018-07-09T01:11:35.418Z,1017.14
2018-07-09T01:16:31.164Z,1017.08
2018-07-09T01:21:27.844Z,1017.21
2018-07-09T01:26:23.665Z,1017.22
2018-07-09T01:31:19.462Z,1017.11
2018-07-09T01:36:15.379Z,1017.12
2018-07-09T01:41:11.247Z,1017.12
2018-07-09T01:46:08.489Z,1017.20
2018-07-09T01:51:05.058Z,1017.19
2018-07-09T01:56:01.716Z,1017.20
2018-07-09T02:00:58.442Z,1017.23
2018-07-09T02:05:55.514Z,1017.20
2018-07-09T02:10:51.358Z,1017.14
2018-07-09T02:15:48.951Z,1017.22
2018-07-09T02:20:44.350Z,1017.17
2018-07-09T02:25:40.905Z,1017.09
2018-07-09T02:30:37.796Z,1016.94
2018-07-09T02:35:33.360Z,1017.14
2018-07-09T02:40:28.991Z,1017.18
2018-07-09T02:45:24.921Z,1017.17
2018-07-09T02:50:20.818Z,1017.21
2018-07-09T02:55:16.489Z,1017.19
2018-07-09T03:00:13.306Z,1017.19
2018-07-09T03:05:09.123Z,1017.20
2018-07-09T03:10:04.880Z,1017.25
2018-07-09T03:15:01.581Z,1017.37
2018-07-09T03:19:58.145Z,1017.47
2018-07-09T03:24:53.788Z,1017.53
2018-07-09T03:29:49.495Z,1017.53
2018-07-09T03:34:45.958Z,1017.47
2018-07-09T03:39:42.132Z,1017.46
2018-07-09T03:44:38.699Z,1017.52
2018-07-09T03:49:35.695Z,1017.38
2018-07-09T03:54:31.897Z,1017.49
2018-07-09T03:59:28.296Z,1017.50
2018-07-09T04:04:25.124Z,1017.42
2018-07-09T04:09:20.679Z,1017.41
2018-07-09T04:14:16.616Z,1017.53
2018-07-09T04:19:12.425Z,1017.45
2018-07-09T04:24:09.287Z,1017.55
2018-07-09T04:29:06.529Z,1017.45
2018-07-09T04:34:01.989Z,1017.42
2018-07-09T04:38:58.893Z,1017.55
2018-07-09T04:43:56.765Z,1017.47
2018-07-09T04:48:53.597Z,1017.55
2018-07-09T04:53:51.649Z,1017.53
2018-07-09T04:58:48.740Z,1017.55
2018-07-09T05:03:45.242Z,1017.50
2018-07-09T05:08:42.155Z,1017.48
2018-07-09T05:13:39.011Z,1017.40
2018-07-09T05:18:35.888Z,1017.32
2018-07-09T05:23:32.709Z,1017.34
2018-07-09T05:28:29.466Z,1017.37
2018-07-09T05:33:26.823Z,1017.46
2018-07-09T05:38:21.850Z,1017.43
2018-07-09T05:43:19.776Z,1017.29
2018-07-09T05:48:16.196Z,1017.36
2018-07-09T05:53:13.660Z,1017.29
2018-07-09T05:58:08.512Z,1017.31
2018-07-09T06:03:04.427Z,1017.37
2018-07-09T06:07:59.657Z,1017.37
2018-07-09T06:12:55.842Z,1017.40
2018-07-09T06:17:50.620Z,1017.55
2018-07-09T06:22:46.120Z,1017.56
2018-07-09T06:27:42.683Z,1017.45
2018-07-09T06:32:37.757Z,1017.31
2018-07-09T06:37:33.429Z,1017.46
2018-07-09T06:42:29.074Z,1017.39
2018-07-09T06:47:26.109Z,1017.34
2018-07-09T06:52:23.066Z,1017.52
2018-07-09T06:57:19.006Z,1017.51
2018-07-09T07:02:15.025Z,1017.63
2018-07-09T07:07:11.651Z,1017.66
2018-07-09T07:12:08.170Z,1017.42
2018-07-09T07:17:04.424Z,1017.43
2018-07-09T07:22:01.182Z,1017.35
2018-07-09T07:26:58.445Z,1017.20
2018-07-09T07:31:54.424Z,1017.14
2018-07-09T07:36:50.619Z,1017.00
2018-07-09T07:41:46.598Z,1017.11
2018-07-09T07:46:44.028Z,1017.06
2018-07-09T07:51:40.284Z,1017.00
2018-07-09T07:56:36.395Z,1016.97
2018-07-09T08:01:32.542Z,1017.01
2018-07-09T08:06:29.647Z,1017.00
2018-07-09T08:11:47.731Z,1017.00
2018-07-09T08:16:25.213Z,1017.04
2018-07-09T08:21:23.067Z,1017.20
2018-07-09T08:26:20.381Z,1017.13
2018-07-09T08:31:17.796Z,1017.16
2018-07-09T08:36:16.760Z,1016.92
2018-07-09T08:41:14.538Z,1016.90
2018-07-09T08:46:11.679Z,1016.84
2018-07-09T08:51:07.161Z,1016.83
2018-07-09T08:56:04.387Z,1016.86
2018-07-09T09:01:01.859Z,1016.95
2018-07-09T09:05:57.952Z,1016.92
2018-07-09T09:10:56.116Z,1016.64
2018-07-09T09:15:51.781Z,1016.84
2018-07-09T09:20:46.949Z,1016.77
2018-07-09T09:25:40.890Z,1016.74
2018-07-09T09:30:35.450Z,1016.76
2018-07-09T09:35:30.994Z,1016.78
2018-07-09T09:40:26.670Z,1016.88
2018-07-09T09:45:23.555Z,1016.81
2018-07-09T09:50:19.745Z,1016.66
2018-07-09T09:55:15.414Z,1016.74
2018-07-09T10:00:11.356Z,1016.76
2018-07-09T10:05:07.878Z,1016.78
2018-07-09T10:10:03.262Z,1016.81
2018-07-09T10:14:59.710Z,1016.78
2018-07-09T10:19:56.495Z,1016.79
2018-07-09T10:24:52.930Z,1016.71
2018-07-09T10:29:50.428Z,1016.59
2018-07-09T10:34:45.764Z,1016.66
2018-07-09T10:39:42.718Z,1016.54
2018-07-09T10:44:37.446Z,1016.59
2018-07-09T10:49:32.983Z,1016.62
2018-07-09T10:54:29.469Z,1016.59
2018-07-09T10:59:25.399Z,1016.52
2018-07-09T11:04:20.843Z,1016.42
2018-07-09T11:09:17.662Z,1016.43
2018-07-09T11:14:13.184Z,1016.56
2018-07-09T11:19:09.077Z,1016.45
2018-07-09T11:24:04.948Z,1016.51
2018-07-09T11:29:01.279Z,1016.47
2018-07-09T11:33:58.171Z,1016.56
2018-07-09T11:38:54.748Z,1016.47
2018-07-09T11:43:51.663Z,1016.41
2018-07-09T11:48:47.747Z,1016.38
2018-07-09T11:53:44.273Z,1016.33
2018-07-09T11:58:42.286Z,1016.27
2018-07-09T12:03:38.458Z,1016.19
2018-07-09T12:08:34.491Z,1016.13
2018-07-09T12:13:30.238Z,1016.13
2018-07-09T12:18:26.069Z,1016.12
2018-07-09T12:23:23.101Z,1016.18
2018-07-09T12:28:18.983Z,1016.02
2018-07-09T12:33:16.453Z,1016.00
2018-07-09T12:38:19.945Z,1015.94
2018-07-09T12:43:15.707Z,1015.91
2018-07-09T12:48:11.867Z,1015.79
2018-07-09T12:53:07.989Z,1015.78
2018-07-09T12:58:04.731Z,1015.75
2018-07-09T13:03:02.771Z,1015.74
2018-07-09T13:08:00.247Z,1015.70
2018-07-09T13:12:55.047Z,1015.58
2018-07-09T13:17:49.355Z,1015.40
2018-07-09T13:22:45.421Z,1015.42
2018-07-09T13:27:40.586Z,1015.30
2018-07-09T13:32:36.232Z,1015.29
2018-07-09T13:37:32.411Z,1015.39
2018-07-09T13:42:27.658Z,1015.31
2018-07-09T13:47:24.277Z,1015.20
2018-07-09T13:52:20.429Z,1015.18
2018-07-09T13:57:16.728Z,1015.08
2018-07-09T14:02:12.584Z,1014.95
2018-07-09T14:07:08.622Z,1015.02
2018-07-09T14:12:05.228Z,1014.94
2018-07-09T14:17:00.592Z,1014.83
2018-07-09T14:21:56.129Z,1014.86
2018-07-09T14:26:53.010Z,1014.81
2018-07-09T14:31:48.324Z,1014.81
2018-07-09T14:36:44.374Z,1014.84
2018-07-09T14:41:40.536Z,1014.69
2018-07-09T14:46:36.322Z,1014.68
2018-07-09T14:51:32.286Z,1014.72
2018-07-09T14:56:28.001Z,1014.72
2018-07-09T15:01:25.003Z,1014.74
2018-07-09T15:06:21.377Z,1014.66
2018-07-09T15:11:18.643Z,1014.65
2018-07-09T15:16:14.995Z,1014.54
2018-07-09T15:21:11.925Z,1014.49
2018-07-09T15:26:08.672Z,1014.36
2018-07-09T15:31:05.930Z,1014.43
2018-07-09T15:36:03.440Z,1014.35
2018-07-09T15:40:59.348Z,1014.28
2018-07-09T15:45:55.805Z,1014.27
2018-07-09T15:50:52.658Z,1014.22
2018-07-09T15:55:48.521Z,1014.13
2018-07-09T16:00:44.960Z,1014.03
2018-07-09T16:05:40.597Z,1014.00
2018-07-09T16:10:36.499Z,1014.02
2018-07-09T16:15:32.527Z,1013.95
2018-07-09T16:20:28.810Z,1013.80
2018-07-09T16:25:24.941Z,1013.80
2018-07-09T16:30:20.808Z,1013.81
2018-07-09T16:35:16.596Z,1013.77
2018-07-09T16:40:12.241Z,1013.76
2018-07-09T16:45:07.917Z,1013.85
2018-07-09T16:50:03.965Z,1013.86
2018-07-09T16:54:59.676Z,1013.82
2018-07-09T16:59:55.293Z,1013.88
2018-07-09T17:04:51.298Z,1013.80
2018-07-09T17:09:47.787Z,1013.92
2018-07-09T17:14:43.779Z,1014.03
2018-07-09T17:19:40.825Z,1013.87
2018-07-09T17:24:37.411Z,1013.96
2018-07-09T17:29:34.073Z,1013.85
2018-07-09T17:34:29.810Z,1013.83
2018-07-09T17:39:25.650Z,1013.83
2018-07-09T17:44:21.224Z,1013.96
2018-07-09T17:49:17.334Z,1013.88
2018-07-09T17:54:13.173Z,1013.86
2018-07-09T17:59:09.840Z,1013.92
2018-07-09T18:04:05.177Z,1013.98
2018-07-09T18:09:00.664Z,1014.03
2018-07-09T18:13:57.391Z,1014.05
2018-07-09T18:18:52.901Z,1014.03
2018-07-09T18:23:48.640Z,1014.03
2018-07-09T18:28:45.356Z,1014.08
2018-07-09T18:33:41.802Z,1013.96
2018-07-09T18:38:37.292Z,1014.00
2018-07-09T18:43:34.147Z,1013.94
2018-07-09T18:48:29.628Z,1013.88
2018-07-09T18:53:26.534Z,1013.90
2018-07-09T18:58:22.095Z,1013.90
2018-07-09T19:03:17.730Z,1013.79
2018-07-09T19:08:14.553Z,1013.63
2018-07-09T19:13:09.923Z,1013.69
2018-07-09T19:18:06.833Z,1013.73
2018-07-09T19:23:03.545Z,1013.67
2018-07-09T19:27:58.931Z,1013.68
2018-07-09T19:32:55.291Z,1013.71
2018-07-09T19:37:51.897Z,1013.72
2018-07-09T19:42:48.935Z,1013.72
2018-07-09T19:47:45.554Z,1013.72
2018-07-09T19:52:41.128Z,1013.66
2018-07-09T19:57:37.519Z,1013.67
2018-07-09T20:02:34.021Z,1013.67
2018-07-09T20:07:30.800Z,1013.70
2018-07-09T20:12:25.993Z,1013.63
2018-07-09T20:17:22.279Z,1013.56
2018-07-09T20:22:19.604Z,1013.62
2018-07-09T20:27:15.187Z,1013.72
2018-07-09T20:32:12.260Z,1013.65
2018-07-09T20:37:09.055Z,1013.62
2018-07-09T20:42:04.515Z,1013.62
2018-07-09T20:47:00.530Z,1013.56
2018-07-09T20:51:57.075Z,1013.59
2018-07-09T20:56:52.817Z,1013.69
2018-07-09T21:01:48.329Z,1013.73
2018-07-09T21:06:44.249Z,1013.65
2018-07-09T21:11:41.110Z,1013.63
2018-07-09T21:16:37.611Z,1013.50
2018-07-09T21:21:34.574Z,1013.52
2018-07-09T21:26:31.760Z,1013.50
2018-07-09T21:31:28.362Z,1013.49
2018-07-09T21:36:24.625Z,1013.48
2018-07-09T21:41:20.278Z,1013.41
2018-07-09T21:46:16.696Z,1013.30
2018-07-09T21:51:12.793Z,1013.28
2018-07-09T21:56:08.298Z,1013.36
2018-07-09T22:01:04.391Z,1013.45
2018-07-09T22:06:00.834Z,1013.52
2018-07-09T22:10:56.651Z,1013.58
2018-07-09T22:15:52.339Z,1013.52
2018-07-09T22:20:48.082Z,1013.30
2018-07-09T22:25:44.114Z,1013.38
2018-07-09T22:30:39.770Z,1013.26
2018-07-09T22:35:35.267Z,1013.20
2018-07-09T22:40:32.240Z,1013.28
2018-07-09T22:45:27.858Z,1013.17
2018-07-09T22:50:24.478Z,1013.22
2018-07-09T22:55:20.067Z,1013.17
2018-07-09T23:00:16.074Z,1013.13
2018-07-09T23:05:11.911Z,1013.14
2018-07-09T23:10:07.722Z,1012.98
2018-07-09T23:15:03.689Z,1013.03
2018-07-09T23:19:59.499Z,1012.97
2018-07-09T23:24:55.843Z,1012.96
2018-07-09T23:29:52.728Z,1012.84
2018-07-09T23:34:48.771Z,1012.99
2018-07-09T23:39:44.552Z,1012.94
2018-07-09T23:44:41.597Z,1012.96
2018-07-09T23:49:38.096Z,1012.87
2018-07-09T23:54:33.609Z,1012.87
2018-07-09T23:59:29.310Z,1012.80
